sensor_id;sensor_type;location;lat;lon;timestamp;temperature;humidity
49711;DHT22;35602;44.534;18.696;2022-10-16T00:04:40;23.00;57.50
49711;DHT22;35602;44.534;18.696;2022-10-16T00:09:41;23.00;57.60
49711;DHT22;35602;44.534;18.696;2022-10-16T00:14:42;23.00;57.50
49711;DHT22;35602;44.534;18.696;2022-10-16T00:19:44;23.00;57.50
49711;DHT22;35602;44.534;18.696;2022-10-16T00:24:45;22.80;57.40
49711;DHT22;35602;44.534;18.696;2022-10-16T00:29:50;23.00;57.50
49711;DHT22;35602;44.534;18.696;2022-10-16T00:34:51;23.00;57.50
49711;DHT22;35602;44.534;18.696;2022-10-16T00:39:55;23.00;57.50
49711;DHT22;35602;44.534;18.696;2022-10-16T00:44:57;23.00;57.50
49711;DHT22;35602;44.534;18.696;2022-10-16T00:55:33;23.00;57.30
49711;DHT22;35602;44.534;18.696;2022-10-16T01:00:35;23.00;57.40
49711;DHT22;35602;44.534;18.696;2022-10-16T01:05:44;23.00;57.50
49711;DHT22;35602;44.534;18.696;2022-10-16T01:12:45;23.00;57.40
49711;DHT22;35602;44.534;18.696;2022-10-16T01:18:13;23.00;57.40
49711;DHT22;35602;44.534;18.696;2022-10-16T01:23:51;22.90;58.00
49711;DHT22;35602;44.534;18.696;2022-10-16T01:34:25;22.90;57.20
49711;DHT22;35602;44.534;18.696;2022-10-16T01:39:30;22.90;57.30
49711;DHT22;35602;44.534;18.696;2022-10-16T01:44:34;22.90;57.30
49711;DHT22;35602;44.534;18.696;2022-10-16T01:49:38;22.90;57.30
49711;DHT22;35602;44.534;18.696;2022-10-16T01:54:42;23.00;57.30
49711;DHT22;35602;44.534;18.696;2022-10-16T01:59:47;22.90;57.20
49711;DHT22;35602;44.534;18.696;2022-10-16T02:04:53;22.90;57.20
49711;DHT22;35602;44.534;18.696;2022-10-16T02:09:55;22.90;57.20
49711;DHT22;35602;44.534;18.696;2022-10-16T02:14:59;22.90;57.30
49711;DHT22;35602;44.534;18.696;2022-10-16T02:20:00;22.90;57.20
49711;DHT22;35602;44.534;18.696;2022-10-16T02:25:15;22.90;57.20
49711;DHT22;35602;44.534;18.696;2022-10-16T02:31:18;22.90;57.20
49711;DHT22;35602;44.534;18.696;2022-10-16T02:36:21;22.90;57.10
49711;DHT22;35602;44.534;18.696;2022-10-16T02:41:24;22.90;57.10
49711;DHT22;35602;44.534;18.696;2022-10-16T02:46:24;22.90;57.10
49711;DHT22;35602;44.534;18.696;2022-10-16T02:51:25;22.90;57.10
49711;DHT22;35602;44.534;18.696;2022-10-16T02:56:26;22.90;57.00
49711;DHT22;35602;44.534;18.696;2022-10-16T03:01:27;22.90;57.10
49711;DHT22;35602;44.534;18.696;2022-10-16T03:06:28;22.90;57.00
49711;DHT22;35602;44.534;18.696;2022-10-16T03:11:32;22.90;57.10
49711;DHT22;35602;44.534;18.696;2022-10-16T03:16:32;22.90;56.90
49711;DHT22;35602;44.534;18.696;2022-10-16T03:21:33;22.90;56.90
49711;DHT22;35602;44.534;18.696;2022-10-16T03:26:34;22.90;56.90
49711;DHT22;35602;44.534;18.696;2022-10-16T03:31:35;22.90;56.90
49711;DHT22;35602;44.534;18.696;2022-10-16T03:36:36;22.90;56.90
49711;DHT22;35602;44.534;18.696;2022-10-16T03:41:36;22.90;56.90
49711;DHT22;35602;44.534;18.696;2022-10-16T03:46:37;22.90;56.80
49711;DHT22;35602;44.534;18.696;2022-10-16T03:51:38;22.90;56.80
49711;DHT22;35602;44.534;18.696;2022-10-16T03:56:42;22.90;56.70
49711;DHT22;35602;44.534;18.696;2022-10-16T04:01:42;22.90;56.80
49711;DHT22;35602;44.534;18.696;2022-10-16T04:06:44;22.90;56.80
49711;DHT22;35602;44.534;18.696;2022-10-16T04:11:44;22.90;56.80
49711;DHT22;35602;44.534;18.696;2022-10-16T04:16:45;22.90;56.80
49711;DHT22;35602;44.534;18.696;2022-10-16T04:21:46;22.90;56.60
49711;DHT22;35602;44.534;18.696;2022-10-16T04:26:47;22.90;56.70
49711;DHT22;35602;44.534;18.696;2022-10-16T04:31:48;22.90;56.70
49711;DHT22;35602;44.534;18.696;2022-10-16T04:36:48;22.90;56.60
49711;DHT22;35602;44.534;18.696;2022-10-16T04:41:49;22.90;57.20
49711;DHT22;35602;44.534;18.696;2022-10-16T04:46:51;22.90;56.60
49711;DHT22;35602;44.534;18.696;2022-10-16T04:51:52;22.90;56.70
49711;DHT22;35602;44.534;18.696;2022-10-16T04:56:53;22.90;56.50
49711;DHT22;35602;44.534;18.696;2022-10-16T05:01:53;22.90;56.50
49711;DHT22;35602;44.534;18.696;2022-10-16T05:06:54;22.90;56.60
49711;DHT22;35602;44.534;18.696;2022-10-16T05:11:58;22.90;56.50
49711;DHT22;35602;44.534;18.696;2022-10-16T05:16:59;22.90;56.50
49711;DHT22;35602;44.534;18.696;2022-10-16T05:22:01;22.90;56.50
49711;DHT22;35602;44.534;18.696;2022-10-16T05:27:02;22.80;56.30
49711;DHT22;35602;44.534;18.696;2022-10-16T05:32:06;22.90;56.40
49711;DHT22;35602;44.534;18.696;2022-10-16T05:37:07;22.90;56.30
49711;DHT22;35602;44.534;18.696;2022-10-16T05:42:08;22.90;56.30
49711;DHT22;35602;44.534;18.696;2022-10-16T05:47:08;22.90;57.00
49711;DHT22;35602;44.534;18.696;2022-10-16T05:52:11;22.90;56.40
49711;DHT22;35602;44.534;18.696;2022-10-16T05:57:11;22.90;56.20
49711;DHT22;35602;44.534;18.696;2022-10-16T06:02:15;22.80;56.30
49711;DHT22;35602;44.534;18.696;2022-10-16T06:07:16;22.80;56.30
49711;DHT22;35602;44.534;18.696;2022-10-16T06:12:20;22.80;56.20
49711;DHT22;35602;44.534;18.696;2022-10-16T06:17:21;22.80;56.20
49711;DHT22;35602;44.534;18.696;2022-10-16T06:22:21;22.80;56.20
49711;DHT22;35602;44.534;18.696;2022-10-16T06:27:22;22.80;56.10
49711;DHT22;35602;44.534;18.696;2022-10-16T06:32:23;22.80;56.10
49711;DHT22;35602;44.534;18.696;2022-10-16T06:37:24;22.80;56.20
49711;DHT22;35602;44.534;18.696;2022-10-16T06:42:25;22.80;56.10
49711;DHT22;35602;44.534;18.696;2022-10-16T06:47:26;22.80;56.80
49711;DHT22;35602;44.534;18.696;2022-10-16T06:52:30;22.80;56.10
49711;DHT22;35602;44.534;18.696;2022-10-16T06:57:31;22.80;56.10
49711;DHT22;35602;44.534;18.696;2022-10-16T07:02:32;22.80;56.00
49711;DHT22;35602;44.534;18.696;2022-10-16T07:07:32;22.80;56.00
49711;DHT22;35602;44.534;18.696;2022-10-16T07:12:36;22.80;56.00
49711;DHT22;35602;44.534;18.696;2022-10-16T07:17:37;22.90;56.10
49711;DHT22;35602;44.534;18.696;2022-10-16T07:22:38;22.80;56.10
49711;DHT22;35602;44.534;18.696;2022-10-16T07:27:39;22.90;56.10
49711;DHT22;35602;44.534;18.696;2022-10-16T07:32:39;22.80;56.00
49711;DHT22;35602;44.534;18.696;2022-10-16T07:37:44;22.80;56.00
49711;DHT22;35602;44.534;18.696;2022-10-16T07:42:46;22.80;55.90
49711;DHT22;35602;44.534;18.696;2022-10-16T07:47:46;22.80;56.00
49711;DHT22;35602;44.534;18.696;2022-10-16T07:52:47;22.80;56.00
49711;DHT22;35602;44.534;18.696;2022-10-16T07:57:48;22.80;56.00
49711;DHT22;35602;44.534;18.696;2022-10-16T08:02:49;22.80;55.90
49711;DHT22;35602;44.534;18.696;2022-10-16T08:07:50;22.80;55.90
49711;DHT22;35602;44.534;18.696;2022-10-16T08:12:51;22.80;55.90
49711;DHT22;35602;44.534;18.696;2022-10-16T08:17:56;22.80;55.90
49711;DHT22;35602;44.534;18.696;2022-10-16T08:22:57;22.80;56.00
49711;DHT22;35602;44.534;18.696;2022-10-16T08:27:59;22.80;55.90
49711;DHT22;35602;44.534;18.696;2022-10-16T08:33:00;22.80;55.90
49711;DHT22;35602;44.534;18.696;2022-10-16T08:38:03;22.80;56.00
49711;DHT22;35602;44.534;18.696;2022-10-16T08:52:16;22.80;55.90
49711;DHT22;35602;44.534;18.696;2022-10-16T08:57:20;22.80;56.00
49711;DHT22;35602;44.534;18.696;2022-10-16T09:02:40;22.80;56.00
49711;DHT22;35602;44.534;18.696;2022-10-16T09:10:28;22.90;56.00
49711;DHT22;35602;44.534;18.696;2022-10-16T09:15:39;22.90;56.10
49711;DHT22;35602;44.534;18.696;2022-10-16T09:26:43;22.90;56.00
49711;DHT22;35602;44.534;18.696;2022-10-16T09:31:46;22.80;56.00
49711;DHT22;35602;44.534;18.696;2022-10-16T09:36:47;22.80;56.00
49711;DHT22;35602;44.534;18.696;2022-10-16T09:41:48;22.90;56.10
49711;DHT22;35602;44.534;18.696;2022-10-16T09:47:00;22.90;56.10
49711;DHT22;35602;44.534;18.696;2022-10-16T09:52:12;22.90;56.10
49711;DHT22;35602;44.534;18.696;2022-10-16T09:57:16;22.90;56.10
49711;DHT22;35602;44.534;18.696;2022-10-16T10:02:20;22.90;56.10
49711;DHT22;35602;44.534;18.696;2022-10-16T10:07:32;22.90;56.20
49711;DHT22;35602;44.534;18.696;2022-10-16T10:12:45;22.90;56.10
49711;DHT22;35602;44.534;18.696;2022-10-16T10:17:51;22.90;56.20
49711;DHT22;35602;44.534;18.696;2022-10-16T10:22:52;22.90;56.10
49711;DHT22;35602;44.534;18.696;2022-10-16T10:31:06;22.90;56.20
49711;DHT22;35602;44.534;18.696;2022-10-16T10:36:49;23.10;56.40
49711;DHT22;35602;44.534;18.696;2022-10-16T10:42:43;22.90;56.30
49711;DHT22;35602;44.534;18.696;2022-10-16T11:14:36;22.90;56.30
49711;DHT22;35602;44.534;18.696;2022-10-16T11:20:39;22.90;56.40
49711;DHT22;35602;44.534;18.696;2022-10-16T11:25:43;22.90;56.30
49711;DHT22;35602;44.534;18.696;2022-10-16T11:31:10;22.90;56.40
49711;DHT22;35602;44.534;18.696;2022-10-16T11:36:33;22.90;56.50
49711;DHT22;35602;44.534;18.696;2022-10-16T11:41:50;22.90;56.50
49711;DHT22;35602;44.534;18.696;2022-10-16T11:47:04;22.90;56.40
49711;DHT22;35602;44.534;18.696;2022-10-16T11:52:28;22.90;56.60
49711;DHT22;35602;44.534;18.696;2022-10-16T11:57:39;22.90;56.50
49711;DHT22;35602;44.534;18.696;2022-10-16T12:02:51;22.90;56.50
49711;DHT22;35602;44.534;18.696;2022-10-16T12:08:07;22.90;56.60
49711;DHT22;35602;44.534;18.696;2022-10-16T12:13:36;22.90;56.50
49711;DHT22;35602;44.534;18.696;2022-10-16T12:18:38;22.90;56.50
49711;DHT22;35602;44.534;18.696;2022-10-16T12:23:52;22.90;56.60
49711;DHT22;35602;44.534;18.696;2022-10-16T12:28:55;22.90;56.60
49711;DHT22;35602;44.534;18.696;2022-10-16T12:34:02;22.90;56.70
49711;DHT22;35602;44.534;18.696;2022-10-16T12:39:03;22.90;56.60
49711;DHT22;35602;44.534;18.696;2022-10-16T12:44:04;22.90;56.70
49711;DHT22;35602;44.534;18.696;2022-10-16T12:50:22;22.90;56.70
49711;DHT22;35602;44.534;18.696;2022-10-16T12:55:24;22.90;56.70
49711;DHT22;35602;44.534;18.696;2022-10-16T13:01:03;23.10;56.80
49711;DHT22;35602;44.534;18.696;2022-10-16T13:14:05;22.90;56.60
49711;DHT22;35602;44.534;18.696;2022-10-16T13:22:15;22.90;56.70
49711;DHT22;35602;44.534;18.696;2022-10-16T13:27:50;22.90;56.60
49711;DHT22;35602;44.534;18.696;2022-10-16T13:33:13;22.90;56.70
49711;DHT22;35602;44.534;18.696;2022-10-16T13:38:19;22.90;56.70
49711;DHT22;35602;44.534;18.696;2022-10-16T13:43:22;22.90;56.70
49711;DHT22;35602;44.534;18.696;2022-10-16T13:48:24;22.90;56.80
49711;DHT22;35602;44.534;18.696;2022-10-16T13:53:25;22.90;56.80
49711;DHT22;35602;44.534;18.696;2022-10-16T13:58:26;22.90;56.70
49711;DHT22;35602;44.534;18.696;2022-10-16T14:03:28;22.90;56.80
49711;DHT22;35602;44.534;18.696;2022-10-16T14:08:30;22.90;56.80
49711;DHT22;35602;44.534;18.696;2022-10-16T14:13:36;23.00;56.90
49711;DHT22;35602;44.534;18.696;2022-10-16T14:18:38;23.00;56.80
49711;DHT22;35602;44.534;18.696;2022-10-16T14:23:41;23.00;56.80
49711;DHT22;35602;44.534;18.696;2022-10-16T14:28:42;22.90;56.80
49711;DHT22;35602;44.534;18.696;2022-10-16T14:33:44;22.90;56.80
49711;DHT22;35602;44.534;18.696;2022-10-16T14:39:06;22.90;56.80
49711;DHT22;35602;44.534;18.696;2022-10-16T14:44:14;22.90;56.80
49711;DHT22;35602;44.534;18.696;2022-10-16T14:49:18;23.00;56.90
49711;DHT22;35602;44.534;18.696;2022-10-16T14:54:21;23.00;57.00
49711;DHT22;35602;44.534;18.696;2022-10-16T14:59:43;22.90;56.90
49711;DHT22;35602;44.534;18.696;2022-10-16T15:04:47;23.00;56.90
49711;DHT22;35602;44.534;18.696;2022-10-16T15:09:48;22.90;57.00
49711;DHT22;35602;44.534;18.696;2022-10-16T15:14:50;22.90;57.00
49711;DHT22;35602;44.534;18.696;2022-10-16T15:19:51;22.90;57.00
49711;DHT22;35602;44.534;18.696;2022-10-16T15:24:51;22.90;57.00
49711;DHT22;35602;44.534;18.696;2022-10-16T15:29:52;22.90;57.10
49711;DHT22;35602;44.534;18.696;2022-10-16T15:34:53;22.90;57.10
49711;DHT22;35602;44.534;18.696;2022-10-16T15:39:54;23.00;57.20
49711;DHT22;35602;44.534;18.696;2022-10-16T15:44:55;23.00;57.10
49711;DHT22;35602;44.534;18.696;2022-10-16T15:49:55;23.00;57.20
49711;DHT22;35602;44.534;18.696;2022-10-16T15:54:56;23.00;57.80
49711;DHT22;35602;44.534;18.696;2022-10-16T15:59:57;23.00;57.20
49711;DHT22;35602;44.534;18.696;2022-10-16T16:04:58;22.90;57.20
49711;DHT22;35602;44.534;18.696;2022-10-16T16:09:59;23.00;57.20
49711;DHT22;35602;44.534;18.696;2022-10-16T16:15:00;22.90;57.20
49711;DHT22;35602;44.534;18.696;2022-10-16T16:20:01;22.90;57.20
49711;DHT22;35602;44.534;18.696;2022-10-16T16:25:02;23.00;57.20
49711;DHT22;35602;44.534;18.696;2022-10-16T16:30:05;22.90;57.20
49711;DHT22;35602;44.534;18.696;2022-10-16T16:35:07;22.90;57.20
49711;DHT22;35602;44.534;18.696;2022-10-16T16:40:11;23.00;57.30
49711;DHT22;35602;44.534;18.696;2022-10-16T16:45:12;23.00;57.30
49711;DHT22;35602;44.534;18.696;2022-10-16T16:50:13;23.00;57.30
49711;DHT22;35602;44.534;18.696;2022-10-16T16:55:13;23.00;57.30
49711;DHT22;35602;44.534;18.696;2022-10-16T17:00:14;23.00;57.30
49711;DHT22;35602;44.534;18.696;2022-10-16T17:05:15;22.90;57.30
49711;DHT22;35602;44.534;18.696;2022-10-16T17:10:17;22.90;57.30
49711;DHT22;35602;44.534;18.696;2022-10-16T17:15:17;22.90;57.30
49711;DHT22;35602;44.534;18.696;2022-10-16T17:20:18;22.90;57.40
49711;DHT22;35602;44.534;18.696;2022-10-16T17:25:19;23.00;57.40
49711;DHT22;35602;44.534;18.696;2022-10-16T17:30:21;22.90;57.30
49711;DHT22;35602;44.534;18.696;2022-10-16T17:35:23;22.90;57.40
49711;DHT22;35602;44.534;18.696;2022-10-16T17:40:25;23.00;57.50
49711;DHT22;35602;44.534;18.696;2022-10-16T17:45:26;22.90;57.40
49711;DHT22;35602;44.534;18.696;2022-10-16T17:50:27;22.90;57.50
49711;DHT22;35602;44.534;18.696;2022-10-16T17:55:28;22.90;57.50
49711;DHT22;35602;44.534;18.696;2022-10-16T18:00:28;23.00;57.60
49711;DHT22;35602;44.534;18.696;2022-10-16T18:05:29;22.90;57.60
49711;DHT22;35602;44.534;18.696;2022-10-16T18:10:30;23.10;57.70
49711;DHT22;35602;44.534;18.696;2022-10-16T18:15:31;22.90;57.60
49711;DHT22;35602;44.534;18.696;2022-10-16T18:20:32;23.00;57.70
49711;DHT22;35602;44.534;18.696;2022-10-16T18:25:32;22.90;57.60
49711;DHT22;35602;44.534;18.696;2022-10-16T18:30:34;22.90;57.70
49711;DHT22;35602;44.534;18.696;2022-10-16T18:35:35;22.90;57.60
49711;DHT22;35602;44.534;18.696;2022-10-16T18:40:36;22.90;57.70
49711;DHT22;35602;44.534;18.696;2022-10-16T18:45:38;23.00;57.80
49711;DHT22;35602;44.534;18.696;2022-10-16T18:50:38;22.90;57.80
49711;DHT22;35602;44.534;18.696;2022-10-16T18:55:42;22.90;57.90
49711;DHT22;35602;44.534;18.696;2022-10-16T19:00:43;22.90;57.80
49711;DHT22;35602;44.534;18.696;2022-10-16T19:05:47;22.90;57.80
49711;DHT22;35602;44.534;18.696;2022-10-16T19:10:47;22.90;57.80
49711;DHT22;35602;44.534;18.696;2022-10-16T19:15:48;22.90;57.90
49711;DHT22;35602;44.534;18.696;2022-10-16T19:20:49;22.90;57.90
49711;DHT22;35602;44.534;18.696;2022-10-16T19:25:50;22.90;57.90
49711;DHT22;35602;44.534;18.696;2022-10-16T19:30:50;22.90;57.90
49711;DHT22;35602;44.534;18.696;2022-10-16T19:35:51;23.00;57.90
49711;DHT22;35602;44.534;18.696;2022-10-16T19:40:52;22.90;57.90
49711;DHT22;35602;44.534;18.696;2022-10-16T19:45:53;22.90;57.90
49711;DHT22;35602;44.534;18.696;2022-10-16T19:50:54;22.90;57.90
49711;DHT22;35602;44.534;18.696;2022-10-16T19:55:55;22.90;57.90
49711;DHT22;35602;44.534;18.696;2022-10-16T20:00:57;22.90;57.90
49711;DHT22;35602;44.534;18.696;2022-10-16T20:05:57;22.90;57.90
49711;DHT22;35602;44.534;18.696;2022-10-16T20:11:05;22.90;57.90
49711;DHT22;35602;44.534;18.696;2022-10-16T20:16:10;22.90;57.90
49711;DHT22;35602;44.534;18.696;2022-10-16T20:21:14;22.90;57.90
49711;DHT22;35602;44.534;18.696;2022-10-16T20:26:17;22.90;58.40
49711;DHT22;35602;44.534;18.696;2022-10-16T20:31:27;22.90;57.90
49711;DHT22;35602;44.534;18.696;2022-10-16T20:36:28;22.90;57.80
49711;DHT22;35602;44.534;18.696;2022-10-16T20:41:30;22.90;57.80
49711;DHT22;35602;44.534;18.696;2022-10-16T20:46:31;22.90;57.80
49711;DHT22;35602;44.534;18.696;2022-10-16T20:51:32;22.90;57.80
49711;DHT22;35602;44.534;18.696;2022-10-16T20:56:34;22.90;57.80
49711;DHT22;35602;44.534;18.696;2022-10-16T21:01:35;22.90;57.70
49711;DHT22;35602;44.534;18.696;2022-10-16T21:06:37;22.90;57.70
49711;DHT22;35602;44.534;18.696;2022-10-16T21:11:38;22.90;57.70
49711;DHT22;35602;44.534;18.696;2022-10-16T21:16:39;22.90;57.70
49711;DHT22;35602;44.534;18.696;2022-10-16T21:21:40;22.90;57.70
49711;DHT22;35602;44.534;18.696;2022-10-16T21:26:41;22.90;57.70
49711;DHT22;35602;44.534;18.696;2022-10-16T21:31:42;22.90;57.70
49711;DHT22;35602;44.534;18.696;2022-10-16T21:36:43;22.90;57.60
49711;DHT22;35602;44.534;18.696;2022-10-16T21:41:46;22.90;57.60
49711;DHT22;35602;44.534;18.696;2022-10-16T21:46:49;22.90;57.60
49711;DHT22;35602;44.534;18.696;2022-10-16T21:51:50;22.90;57.70
49711;DHT22;35602;44.534;18.696;2022-10-16T21:56:52;22.90;57.60
49711;DHT22;35602;44.534;18.696;2022-10-16T22:01:53;22.90;57.50
49711;DHT22;35602;44.534;18.696;2022-10-16T22:06:54;22.90;57.70
49711;DHT22;35602;44.534;18.696;2022-10-16T22:11:55;22.90;57.70
49711;DHT22;35602;44.534;18.696;2022-10-16T22:16:56;22.90;57.60
49711;DHT22;35602;44.534;18.696;2022-10-16T22:21:57;22.80;57.60
49711;DHT22;35602;44.534;18.696;2022-10-16T22:26:59;22.80;57.60
49711;DHT22;35602;44.534;18.696;2022-10-16T22:32:00;22.80;58.40
49711;DHT22;35602;44.534;18.696;2022-10-16T22:37:01;22.90;57.70
49711;DHT22;35602;44.534;18.696;2022-10-16T22:42:02;22.90;57.70
49711;DHT22;35602;44.534;18.696;2022-10-16T22:47:03;22.80;57.60
49711;DHT22;35602;44.534;18.696;2022-10-16T22:52:04;22.80;57.70
49711;DHT22;35602;44.534;18.696;2022-10-16T22:57:04;22.90;57.70
49711;DHT22;35602;44.534;18.696;2022-10-16T23:02:05;22.90;57.70
49711;DHT22;35602;44.534;18.696;2022-10-16T23:07:06;22.80;57.70
49711;DHT22;35602;44.534;18.696;2022-10-16T23:12:10;22.80;57.70
49711;DHT22;35602;44.534;18.696;2022-10-16T23:17:11;22.80;57.70
49711;DHT22;35602;44.534;18.696;2022-10-16T23:22:11;22.80;57.70
49711;DHT22;35602;44.534;18.696;2022-10-16T23:27:12;22.80;57.70
49711;DHT22;35602;44.534;18.696;2022-10-16T23:32:13;22.80;57.70
49711;DHT22;35602;44.534;18.696;2022-10-16T23:37:14;22.80;57.80
49711;DHT22;35602;44.534;18.696;2022-10-16T23:42:15;22.80;57.70
49711;DHT22;35602;44.534;18.696;2022-10-16T23:47:16;22.80;57.70
49711;DHT22;35602;44.534;18.696;2022-10-16T23:52:17;22.80;57.60
49711;DHT22;35602;44.534;18.696;2022-10-16T23:57:19;22.80;57.70
